sensor_id;sensor_type;location;lat;lon;timestamp;P1;durP1;ratioP1;P2;durP2;ratioP2
36725;SDS011;44936;52.086;5.150;2023-06-01T00:02:22;9.43;;;3.17;;
36725;SDS011;44936;52.086;5.150;2023-06-01T00:04:48;5.93;;;2.38;;
36725;SDS011;44936;52.086;5.150;2023-06-01T00:07:15;8.73;;;2.65;;
36725;SDS011;44936;52.086;5.150;2023-06-01T00:09:40;8.15;;;1.98;;
36725;SDS011;44936;52.086;5.150;2023-06-01T00:12:06;6.35;;;1.90;;
36725;SDS011;44936;52.086;5.150;2023-06-01T00:14:32;5.15;;;2.90;;
36725;SDS011;44936;52.086;5.150;2023-06-01T00:16:58;7.40;;;2.80;;
36725;SDS011;44936;52.086;5.150;2023-06-01T00:19:23;6.57;;;2.00;;
36725;SDS011;44936;52.086;5.150;2023-06-01T00:21:51;8.27;;;1.95;;
36725;SDS011;44936;52.086;5.150;2023-06-01T00:24:18;7.53;;;2.33;;
36725;SDS011;44936;52.086;5.150;2023-06-01T00:26:44;5.25;;;2.10;;
36725;SDS011;44936;52.086;5.150;2023-06-01T00:29:10;5.95;;;2.15;;
36725;SDS011;44936;52.086;5.150;2023-06-01T00:31:35;6.55;;;2.08;;
36725;SDS011;44936;52.086;5.150;2023-06-01T00:34:00;7.85;;;2.70;;
36725;SDS011;44936;52.086;5.150;2023-06-01T00:36:26;7.22;;;1.83;;
36725;SDS011;44936;52.086;5.150;2023-06-01T00:38:51;6.60;;;2.58;;
36725;SDS011;44936;52.086;5.150;2023-06-01T00:41:16;6.38;;;2.50;;
36725;SDS011;44936;52.086;5.150;2023-06-01T00:43:42;5.47;;;2.13;;
36725;SDS011;44936;52.086;5.150;2023-06-01T00:46:07;6.68;;;2.20;;
36725;SDS011;44936;52.086;5.150;2023-06-01T00:48:34;6.90;;;1.80;;
36725;SDS011;44936;52.086;5.150;2023-06-01T00:51:00;6.40;;;2.28;;
36725;SDS011;44936;52.086;5.150;2023-06-01T00:53:26;3.95;;;1.75;;
36725;SDS011;44936;52.086;5.150;2023-06-01T00:55:51;8.15;;;2.40;;
36725;SDS011;44936;52.086;5.150;2023-06-01T00:58:17;6.75;;;1.98;;
36725;SDS011;44936;52.086;5.150;2023-06-01T01:00:42;5.22;;;1.73;;
36725;SDS011;44936;52.086;5.150;2023-06-01T01:03:08;6.68;;;1.90;;
36725;SDS011;44936;52.086;5.150;2023-06-01T01:05:35;8.30;;;2.45;;
36725;SDS011;44936;52.086;5.150;2023-06-01T01:11:01;4.78;;;2.10;;
36725;SDS011;44936;52.086;5.150;2023-06-01T01:13:39;5.18;;;2.13;;
36725;SDS011;44936;52.086;5.150;2023-06-01T01:18:50;6.15;;;2.08;;
36725;SDS011;44936;52.086;5.150;2023-06-01T01:21:20;6.90;;;2.10;;
36725;SDS011;44936;52.086;5.150;2023-06-01T01:24:07;6.20;;;2.13;;
36725;SDS011;44936;52.086;5.150;2023-06-01T01:26:42;4.97;;;1.95;;
36725;SDS011;44936;52.086;5.150;2023-06-01T01:29:18;4.47;;;1.80;;
36725;SDS011;44936;52.086;5.150;2023-06-01T01:31:46;8.65;;;2.33;;
36725;SDS011;44936;52.086;5.150;2023-06-01T01:34:15;5.00;;;2.10;;
36725;SDS011;44936;52.086;5.150;2023-06-01T01:36:44;4.72;;;1.95;;
36725;SDS011;44936;52.086;5.150;2023-06-01T01:39:10;4.78;;;1.80;;
36725;SDS011;44936;52.086;5.150;2023-06-01T01:41:35;4.30;;;1.95;;
36725;SDS011;44936;52.086;5.150;2023-06-01T01:44:00;7.60;;;2.53;;
36725;SDS011;44936;52.086;5.150;2023-06-01T01:46:28;5.80;;;2.25;;
36725;SDS011;44936;52.086;5.150;2023-06-01T01:54:29;6.68;;;1.88;;
36725;SDS011;44936;52.086;5.150;2023-06-01T01:56:57;5.85;;;2.13;;
36725;SDS011;44936;52.086;5.150;2023-06-01T01:59:24;4.07;;;1.90;;
36725;SDS011;44936;52.086;5.150;2023-06-01T02:01:51;6.18;;;2.10;;
36725;SDS011;44936;52.086;5.150;2023-06-01T02:04:17;7.85;;;2.50;;
36725;SDS011;44936;52.086;5.150;2023-06-01T02:06:43;5.28;;;1.88;;
36725;SDS011;44936;52.086;5.150;2023-06-01T02:09:08;6.65;;;2.25;;
36725;SDS011;44936;52.086;5.150;2023-06-01T02:11:34;4.75;;;1.88;;
36725;SDS011;44936;52.086;5.150;2023-06-01T02:14:00;6.35;;;2.05;;
36725;SDS011;44936;52.086;5.150;2023-06-01T02:16:26;7.93;;;2.47;;
36725;SDS011;44936;52.086;5.150;2023-06-01T02:18:51;4.35;;;2.05;;
36725;SDS011;44936;52.086;5.150;2023-06-01T02:21:17;6.28;;;2.13;;
36725;SDS011;44936;52.086;5.150;2023-06-01T02:23:42;3.65;;;1.95;;
36725;SDS011;44936;52.086;5.150;2023-06-01T02:26:08;5.70;;;2.60;;
36725;SDS011;44936;52.086;5.150;2023-06-01T02:28:37;7.82;;;2.72;;
36725;SDS011;44936;52.086;5.150;2023-06-01T02:31:06;7.43;;;2.10;;
36725;SDS011;44936;52.086;5.150;2023-06-01T02:33:32;8.88;;;2.65;;
36725;SDS011;44936;52.086;5.150;2023-06-01T02:35:58;4.82;;;2.35;;
36725;SDS011;44936;52.086;5.150;2023-06-01T02:38:23;9.35;;;2.60;;
36725;SDS011;44936;52.086;5.150;2023-06-01T02:40:49;4.35;;;2.05;;
36725;SDS011;44936;52.086;5.150;2023-06-01T02:43:14;7.25;;;2.10;;
36725;SDS011;44936;52.086;5.150;2023-06-01T02:45:40;3.92;;;1.80;;
36725;SDS011;44936;52.086;5.150;2023-06-01T02:48:05;4.53;;;1.75;;
36725;SDS011;44936;52.086;5.150;2023-06-01T02:50:30;3.80;;;2.17;;
36725;SDS011;44936;52.086;5.150;2023-06-01T02:52:56;6.82;;;2.30;;
36725;SDS011;44936;52.086;5.150;2023-06-01T02:55:21;6.65;;;1.92;;
36725;SDS011;44936;52.086;5.150;2023-06-01T02:57:47;4.90;;;2.22;;
36725;SDS011;44936;52.086;5.150;2023-06-01T03:00:13;6.95;;;2.47;;
36725;SDS011;44936;52.086;5.150;2023-06-01T03:02:42;4.93;;;2.10;;
36725;SDS011;44936;52.086;5.150;2023-06-01T03:05:08;4.35;;;1.95;;
36725;SDS011;44936;52.086;5.150;2023-06-01T03:07:34;8.60;;;2.05;;
36725;SDS011;44936;52.086;5.150;2023-06-01T03:09:59;7.00;;;3.13;;
36725;SDS011;44936;52.086;5.150;2023-06-01T03:12:25;6.57;;;2.60;;
36725;SDS011;44936;52.086;5.150;2023-06-01T03:14:50;5.65;;;2.20;;
36725;SDS011;44936;52.086;5.150;2023-06-01T03:17:15;6.10;;;2.50;;
36725;SDS011;44936;52.086;5.150;2023-06-01T03:19:41;7.75;;;2.55;;
36725;SDS011;44936;52.086;5.150;2023-06-01T03:22:07;6.30;;;2.45;;
36725;SDS011;44936;52.086;5.150;2023-06-01T03:24:33;4.18;;;2.38;;
36725;SDS011;44936;52.086;5.150;2023-06-01T03:26:59;5.47;;;2.55;;
36725;SDS011;44936;52.086;5.150;2023-06-01T03:29:26;10.00;;;2.70;;
36725;SDS011;44936;52.086;5.150;2023-06-01T03:31:51;8.85;;;2.65;;
36725;SDS011;44936;52.086;5.150;2023-06-01T03:34:17;13.80;;;2.72;;
36725;SDS011;44936;52.086;5.150;2023-06-01T03:36:42;7.43;;;2.75;;
36725;SDS011;44936;52.086;5.150;2023-06-01T03:39:12;8.15;;;2.45;;
36725;SDS011;44936;52.086;5.150;2023-06-01T03:41:38;8.02;;;2.63;;
36725;SDS011;44936;52.086;5.150;2023-06-01T03:44:03;7.88;;;2.35;;
36725;SDS011;44936;52.086;5.150;2023-06-01T03:46:29;6.20;;;2.78;;
36725;SDS011;44936;52.086;5.150;2023-06-01T03:48:54;6.35;;;2.55;;
36725;SDS011;44936;52.086;5.150;2023-06-01T03:51:20;6.95;;;2.50;;
36725;SDS011;44936;52.086;5.150;2023-06-01T03:53:45;8.27;;;2.40;;
36725;SDS011;44936;52.086;5.150;2023-06-01T03:56:11;6.90;;;2.75;;
36725;SDS011;44936;52.086;5.150;2023-06-01T03:58:37;8.13;;;2.72;;
36725;SDS011;44936;52.086;5.150;2023-06-01T04:01:02;6.18;;;2.63;;
36725;SDS011;44936;52.086;5.150;2023-06-01T04:03:28;6.72;;;2.75;;
36725;SDS011;44936;52.086;5.150;2023-06-01T04:05:54;6.47;;;2.30;;
36725;SDS011;44936;52.086;5.150;2023-06-01T04:08:24;7.63;;;2.65;;
36725;SDS011;44936;52.086;5.150;2023-06-01T04:10:50;8.95;;;2.90;;
36725;SDS011;44936;52.086;5.150;2023-06-01T04:13:16;7.47;;;2.72;;
36725;SDS011;44936;52.086;5.150;2023-06-01T04:15:41;7.00;;;2.20;;
36725;SDS011;44936;52.086;5.150;2023-06-01T04:18:07;9.43;;;2.63;;
36725;SDS011;44936;52.086;5.150;2023-06-01T04:20:33;8.30;;;2.33;;
36725;SDS011;44936;52.086;5.150;2023-06-01T04:22:59;6.25;;;2.50;;
36725;SDS011;44936;52.086;5.150;2023-06-01T04:25:25;6.88;;;2.95;;
36725;SDS011;44936;52.086;5.150;2023-06-01T04:27:50;7.60;;;2.90;;
36725;SDS011;44936;52.086;5.150;2023-06-01T04:30:19;7.75;;;2.70;;
36725;SDS011;44936;52.086;5.150;2023-06-01T04:32:47;7.55;;;2.55;;
36725;SDS011;44936;52.086;5.150;2023-06-01T04:35:13;7.97;;;2.83;;
36725;SDS011;44936;52.086;5.150;2023-06-01T04:37:39;6.63;;;2.60;;
36725;SDS011;44936;52.086;5.150;2023-06-01T04:40:09;5.65;;;2.63;;
36725;SDS011;44936;52.086;5.150;2023-06-01T04:42:36;6.45;;;2.85;;
36725;SDS011;44936;52.086;5.150;2023-06-01T04:45:15;7.97;;;2.72;;
36725;SDS011;44936;52.086;5.150;2023-06-01T04:47:41;6.40;;;2.33;;
36725;SDS011;44936;52.086;5.150;2023-06-01T04:50:10;6.75;;;2.40;;
36725;SDS011;44936;52.086;5.150;2023-06-01T04:52:39;8.90;;;2.83;;
36725;SDS011;44936;52.086;5.150;2023-06-01T04:55:06;8.23;;;2.53;;
36725;SDS011;44936;52.086;5.150;2023-06-01T04:57:35;8.60;;;3.10;;
36725;SDS011;44936;52.086;5.150;2023-06-01T05:00:04;7.88;;;2.72;;
36725;SDS011;44936;52.086;5.150;2023-06-01T05:02:36;5.22;;;2.85;;
36725;SDS011;44936;52.086;5.150;2023-06-01T05:05:02;4.97;;;2.38;;
36725;SDS011;44936;52.086;5.150;2023-06-01T05:07:29;8.82;;;2.80;;
36725;SDS011;44936;52.086;5.150;2023-06-01T05:09:56;8.50;;;2.25;;
36725;SDS011;44936;52.086;5.150;2023-06-01T05:12:21;5.25;;;2.03;;
36725;SDS011;44936;52.086;5.150;2023-06-01T05:14:46;6.75;;;2.75;;
36725;SDS011;44936;52.086;5.150;2023-06-01T05:17:12;9.45;;;2.70;;
36725;SDS011;44936;52.086;5.150;2023-06-01T05:19:37;5.03;;;1.92;;
36725;SDS011;44936;52.086;5.150;2023-06-01T05:22:03;8.45;;;2.58;;
36725;SDS011;44936;52.086;5.150;2023-06-01T05:24:28;6.22;;;2.75;;
36725;SDS011;44936;52.086;5.150;2023-06-01T05:26:53;7.47;;;2.38;;
36725;SDS011;44936;52.086;5.150;2023-06-01T05:29:19;8.43;;;2.33;;
36725;SDS011;44936;52.086;5.150;2023-06-01T05:31:45;4.97;;;2.00;;
36725;SDS011;44936;52.086;5.150;2023-06-01T05:34:11;6.15;;;2.00;;
36725;SDS011;44936;52.086;5.150;2023-06-01T05:36:37;5.65;;;1.92;;
36725;SDS011;44936;52.086;5.150;2023-06-01T05:39:02;6.50;;;2.40;;
36725;SDS011;44936;52.086;5.150;2023-06-01T05:41:27;6.85;;;2.20;;
36725;SDS011;44936;52.086;5.150;2023-06-01T05:43:53;8.13;;;2.50;;
36725;SDS011;44936;52.086;5.150;2023-06-01T05:46:18;5.28;;;2.22;;
36725;SDS011;44936;52.086;5.150;2023-06-01T05:48:44;7.35;;;1.73;;
36725;SDS011;44936;52.086;5.150;2023-06-01T05:51:10;6.07;;;2.42;;
36725;SDS011;44936;52.086;5.150;2023-06-01T05:53:35;6.35;;;2.05;;
36725;SDS011;44936;52.086;5.150;2023-06-01T05:56:00;5.05;;;1.85;;
36725;SDS011;44936;52.086;5.150;2023-06-01T05:58:26;6.88;;;2.28;;
36725;SDS011;44936;52.086;5.150;2023-06-01T06:00:51;6.65;;;2.22;;
36725;SDS011;44936;52.086;5.150;2023-06-01T06:03:17;5.88;;;2.10;;
36725;SDS011;44936;52.086;5.150;2023-06-01T06:05:43;7.18;;;1.92;;
36725;SDS011;44936;52.086;5.150;2023-06-01T06:08:08;4.88;;;2.40;;
36725;SDS011;44936;52.086;5.150;2023-06-01T06:10:35;7.30;;;2.08;;
36725;SDS011;44936;52.086;5.150;2023-06-01T06:13:00;9.43;;;2.30;;
36725;SDS011;44936;52.086;5.150;2023-06-01T06:15:26;7.20;;;2.25;;
36725;SDS011;44936;52.086;5.150;2023-06-01T06:17:51;5.30;;;2.20;;
36725;SDS011;44936;52.086;5.150;2023-06-01T06:20:17;6.25;;;2.03;;
36725;SDS011;44936;52.086;5.150;2023-06-01T06:22:48;5.05;;;2.20;;
36725;SDS011;44936;52.086;5.150;2023-06-01T06:25:14;4.05;;;2.10;;
36725;SDS011;44936;52.086;5.150;2023-06-01T06:27:39;7.13;;;2.15;;
36725;SDS011;44936;52.086;5.150;2023-06-01T06:30:05;5.85;;;2.15;;
36725;SDS011;44936;52.086;5.150;2023-06-01T06:32:31;8.35;;;2.13;;
36725;SDS011;44936;52.086;5.150;2023-06-01T06:34:57;6.50;;;1.83;;
36725;SDS011;44936;52.086;5.150;2023-06-01T06:37:22;4.68;;;1.88;;
36725;SDS011;44936;52.086;5.150;2023-06-01T06:39:47;7.78;;;2.08;;
36725;SDS011;44936;52.086;5.150;2023-06-01T06:42:12;5.25;;;2.45;;
36725;SDS011;44936;52.086;5.150;2023-06-01T06:44:38;7.32;;;1.95;;
36725;SDS011;44936;52.086;5.150;2023-06-01T06:47:03;5.13;;;2.00;;
36725;SDS011;44936;52.086;5.150;2023-06-01T06:49:29;4.25;;;2.00;;
36725;SDS011;44936;52.086;5.150;2023-06-01T06:51:55;6.90;;;2.10;;
36725;SDS011;44936;52.086;5.150;2023-06-01T06:54:21;6.65;;;2.40;;
36725;SDS011;44936;52.086;5.150;2023-06-01T06:56:46;6.50;;;2.20;;
36725;SDS011;44936;52.086;5.150;2023-06-01T06:59:12;5.40;;;2.00;;
36725;SDS011;44936;52.086;5.150;2023-06-01T07:01:38;7.65;;;2.30;;
36725;SDS011;44936;52.086;5.150;2023-06-01T07:04:04;6.43;;;1.88;;
36725;SDS011;44936;52.086;5.150;2023-06-01T07:06:32;6.47;;;2.28;;
36725;SDS011;44936;52.086;5.150;2023-06-01T07:08:58;5.32;;;2.03;;
36725;SDS011;44936;52.086;5.150;2023-06-01T07:11:24;6.63;;;2.00;;
36725;SDS011;44936;52.086;5.150;2023-06-01T07:13:51;4.57;;;2.20;;
36725;SDS011;44936;52.086;5.150;2023-06-01T07:16:17;3.88;;;2.08;;
36725;SDS011;44936;52.086;5.150;2023-06-01T07:18:42;5.47;;;2.33;;
36725;SDS011;44936;52.086;5.150;2023-06-01T07:21:08;5.15;;;1.83;;
36725;SDS011;44936;52.086;5.150;2023-06-01T07:23:33;5.97;;;2.15;;
36725;SDS011;44936;52.086;5.150;2023-06-01T07:25:58;3.35;;;1.48;;
36725;SDS011;44936;52.086;5.150;2023-06-01T07:28:24;5.45;;;1.73;;
36725;SDS011;44936;52.086;5.150;2023-06-01T07:30:51;3.30;;;1.35;;
36725;SDS011;44936;52.086;5.150;2023-06-01T07:33:17;3.13;;;1.70;;
36725;SDS011;44936;52.086;5.150;2023-06-01T07:35:43;3.95;;;1.45;;
36725;SDS011;44936;52.086;5.150;2023-06-01T07:38:08;4.88;;;1.65;;
36725;SDS011;44936;52.086;5.150;2023-06-01T07:40:34;4.22;;;1.83;;
36725;SDS011;44936;52.086;5.150;2023-06-01T07:43:00;4.97;;;1.63;;
36725;SDS011;44936;52.086;5.150;2023-06-01T07:45:26;4.38;;;2.03;;
36725;SDS011;44936;52.086;5.150;2023-06-01T07:47:52;5.25;;;1.83;;
36725;SDS011;44936;52.086;5.150;2023-06-01T07:50:18;5.18;;;1.63;;
36725;SDS011;44936;52.086;5.150;2023-06-01T07:52:44;6.07;;;2.13;;
36725;SDS011;44936;52.086;5.150;2023-06-01T07:55:10;4.82;;;1.55;;
36725;SDS011;44936;52.086;5.150;2023-06-01T07:57:35;3.13;;;1.33;;
36725;SDS011;44936;52.086;5.150;2023-06-01T08:00:01;3.67;;;1.42;;
36725;SDS011;44936;52.086;5.150;2023-06-01T08:02:28;5.10;;;1.83;;
36725;SDS011;44936;52.086;5.150;2023-06-01T08:04:54;2.80;;;1.17;;
36725;SDS011;44936;52.086;5.150;2023-06-01T08:07:21;3.38;;;2.00;;
36725;SDS011;44936;52.086;5.150;2023-06-01T08:09:47;6.90;;;1.60;;
36725;SDS011;44936;52.086;5.150;2023-06-01T08:12:13;5.32;;;2.10;;
36725;SDS011;44936;52.086;5.150;2023-06-01T08:14:39;2.65;;;1.35;;
36725;SDS011;44936;52.086;5.150;2023-06-01T08:17:06;5.93;;;1.50;;
36725;SDS011;44936;52.086;5.150;2023-06-01T08:19:32;4.35;;;1.77;;
36725;SDS011;44936;52.086;5.150;2023-06-01T08:21:58;4.88;;;1.27;;
36725;SDS011;44936;52.086;5.150;2023-06-01T08:24:24;5.45;;;2.25;;
36725;SDS011;44936;52.086;5.150;2023-06-01T08:26:50;3.15;;;1.23;;
36725;SDS011;44936;52.086;5.150;2023-06-01T08:29:19;5.75;;;1.48;;
36725;SDS011;44936;52.086;5.150;2023-06-01T08:31:45;4.65;;;1.77;;
36725;SDS011;44936;52.086;5.150;2023-06-01T08:34:10;4.32;;;1.42;;
36725;SDS011;44936;52.086;5.150;2023-06-01T08:36:36;2.00;;;1.30;;
36725;SDS011;44936;52.086;5.150;2023-06-01T08:39:06;3.28;;;1.35;;
36725;SDS011;44936;52.086;5.150;2023-06-01T08:41:47;10.40;;;1.73;;
36725;SDS011;44936;52.086;5.150;2023-06-01T08:44:15;4.50;;;1.40;;
36725;SDS011;44936;52.086;5.150;2023-06-01T08:46:45;6.63;;;2.13;;
36725;SDS011;44936;52.086;5.150;2023-06-01T08:49:11;5.57;;;1.45;;
36725;SDS011;44936;52.086;5.150;2023-06-01T08:51:38;3.80;;;1.30;;
36725;SDS011;44936;52.086;5.150;2023-06-01T08:54:06;4.80;;;1.65;;
36725;SDS011;44936;52.086;5.150;2023-06-01T08:56:34;2.17;;;1.20;;
36725;SDS011;44936;52.086;5.150;2023-06-01T08:59:00;5.20;;;1.63;;
36725;SDS011;44936;52.086;5.150;2023-06-01T09:01:25;2.38;;;1.40;;
36725;SDS011;44936;52.086;5.150;2023-06-01T09:03:51;3.45;;;1.50;;
36725;SDS011;44936;52.086;5.150;2023-06-01T09:06:17;3.17;;;1.17;;
36725;SDS011;44936;52.086;5.150;2023-06-01T09:08:44;2.05;;;1.08;;
36725;SDS011;44936;52.086;5.150;2023-06-01T09:11:10;3.67;;;1.45;;
36725;SDS011;44936;52.086;5.150;2023-06-01T09:13:36;2.63;;;1.33;;
36725;SDS011;44936;52.086;5.150;2023-06-01T09:16:02;4.55;;;1.08;;
36725;SDS011;44936;52.086;5.150;2023-06-01T09:18:28;2.47;;;1.02;;
36725;SDS011;44936;52.086;5.150;2023-06-01T09:20:54;2.60;;;1.30;;
36725;SDS011;44936;52.086;5.150;2023-06-01T09:23:34;1.73;;;1.30;;
36725;SDS011;44936;52.086;5.150;2023-06-01T09:26:12;3.20;;;1.52;;
36725;SDS011;44936;52.086;5.150;2023-06-01T09:34:15;2.40;;;1.27;;
36725;SDS011;44936;52.086;5.150;2023-06-01T09:36:49;2.97;;;1.23;;
36725;SDS011;44936;52.086;5.150;2023-06-01T09:39:17;4.75;;;1.40;;
36725;SDS011;44936;52.086;5.150;2023-06-01T09:41:45;4.60;;;1.63;;
36725;SDS011;44936;52.086;5.150;2023-06-01T09:46:48;5.40;;;2.03;;
36725;SDS011;44936;52.086;5.150;2023-06-01T09:49:18;3.42;;;1.50;;
36725;SDS011;44936;52.086;5.150;2023-06-01T09:51:54;2.40;;;1.20;;
36725;SDS011;44936;52.086;5.150;2023-06-01T09:54:42;5.07;;;1.83;;
36725;SDS011;44936;52.086;5.150;2023-06-01T09:57:09;3.40;;;1.27;;
36725;SDS011;44936;52.086;5.150;2023-06-01T09:59:40;1.88;;;1.30;;
36725;SDS011;44936;52.086;5.150;2023-06-01T10:02:07;3.10;;;1.40;;
36725;SDS011;44936;52.086;5.150;2023-06-01T10:04:37;4.20;;;1.70;;
36725;SDS011;44936;52.086;5.150;2023-06-01T10:07:05;3.80;;;1.40;;
36725;SDS011;44936;52.086;5.150;2023-06-01T10:09:31;4.07;;;1.50;;
36725;SDS011;44936;52.086;5.150;2023-06-01T10:11:58;2.95;;;1.70;;
36725;SDS011;44936;52.086;5.150;2023-06-01T10:14:25;3.25;;;1.70;;
36725;SDS011;44936;52.086;5.150;2023-06-01T10:16:50;4.43;;;1.77;;
36725;SDS011;44936;52.086;5.150;2023-06-01T10:19:17;3.30;;;1.75;;
36725;SDS011;44936;52.086;5.150;2023-06-01T10:21:44;3.50;;;1.58;;
36725;SDS011;44936;52.086;5.150;2023-06-01T10:24:11;5.30;;;1.38;;
36725;SDS011;44936;52.086;5.150;2023-06-01T10:26:50;4.75;;;1.67;;
36725;SDS011;44936;52.086;5.150;2023-06-01T10:29:22;4.13;;;1.55;;
36725;SDS011;44936;52.086;5.150;2023-06-01T10:31:49;5.47;;;2.00;;
36725;SDS011;44936;52.086;5.150;2023-06-01T10:34:16;5.30;;;1.55;;
36725;SDS011;44936;52.086;5.150;2023-06-01T10:39:28;4.03;;;1.23;;
36725;SDS011;44936;52.086;5.150;2023-06-01T10:41:58;4.20;;;1.45;;
36725;SDS011;44936;52.086;5.150;2023-06-01T10:57:32;3.53;;;1.40;;
36725;SDS011;44936;52.086;5.150;2023-06-01T11:00:14;5.10;;;1.30;;
36725;SDS011;44936;52.086;5.150;2023-06-01T11:05:41;5.47;;;1.77;;
36725;SDS011;44936;52.086;5.150;2023-06-01T11:13:29;4.53;;;1.65;;
36725;SDS011;44936;52.086;5.150;2023-06-01T11:21:23;3.72;;;1.50;;
36725;SDS011;44936;52.086;5.150;2023-06-01T11:23:49;2.67;;;1.23;;
36725;SDS011;44936;52.086;5.150;2023-06-01T11:26:16;3.05;;;1.40;;
36725;SDS011;44936;52.086;5.150;2023-06-01T11:28:44;4.82;;;1.45;;
36725;SDS011;44936;52.086;5.150;2023-06-01T11:31:11;3.28;;;1.20;;
36725;SDS011;44936;52.086;5.150;2023-06-01T11:33:39;2.75;;;1.40;;
36725;SDS011;44936;52.086;5.150;2023-06-01T11:36:05;3.28;;;1.52;;
36725;SDS011;44936;52.086;5.150;2023-06-01T11:38:35;3.10;;;1.45;;
36725;SDS011;44936;52.086;5.150;2023-06-01T11:41:03;2.92;;;0.93;;
36725;SDS011;44936;52.086;5.150;2023-06-01T11:43:29;3.15;;;1.50;;
36725;SDS011;44936;52.086;5.150;2023-06-01T11:46:02;5.40;;;1.45;;
36725;SDS011;44936;52.086;5.150;2023-06-01T11:48:32;4.63;;;1.65;;
36725;SDS011;44936;52.086;5.150;2023-06-01T11:51:01;3.63;;;1.50;;
36725;SDS011;44936;52.086;5.150;2023-06-01T11:53:31;2.33;;;1.10;;
36725;SDS011;44936;52.086;5.150;2023-06-01T11:55:57;6.22;;;1.20;;
36725;SDS011;44936;52.086;5.150;2023-06-01T11:58:23;1.45;;;1.00;;
36725;SDS011;44936;52.086;5.150;2023-06-01T12:00:54;1.95;;;1.00;;
36725;SDS011;44936;52.086;5.150;2023-06-01T12:03:20;1.80;;;0.90;;
36725;SDS011;44936;52.086;5.150;2023-06-01T12:05:46;6.85;;;1.40;;
36725;SDS011;44936;52.086;5.150;2023-06-01T12:08:18;2.53;;;1.05;;
36725;SDS011;44936;52.086;5.150;2023-06-01T12:10:47;3.75;;;1.48;;
36725;SDS011;44936;52.086;5.150;2023-06-01T12:13:14;1.48;;;0.80;;
36725;SDS011;44936;52.086;5.150;2023-06-01T12:15:40;1.75;;;1.00;;
36725;SDS011;44936;52.086;5.150;2023-06-01T12:18:05;2.70;;;0.82;;
36725;SDS011;44936;52.086;5.150;2023-06-01T12:20:31;3.75;;;1.13;;
36725;SDS011;44936;52.086;5.150;2023-06-01T12:23:00;2.00;;;0.98;;
36725;SDS011;44936;52.086;5.150;2023-06-01T12:25:28;2.28;;;1.15;;
36725;SDS011;44936;52.086;5.150;2023-06-01T12:28:06;1.83;;;1.10;;
36725;SDS011;44936;52.086;5.150;2023-06-01T12:30:32;2.10;;;1.30;;
36725;SDS011;44936;52.086;5.150;2023-06-01T12:32:59;2.35;;;1.45;;
36725;SDS011;44936;52.086;5.150;2023-06-01T12:35:25;1.45;;;1.17;;
36725;SDS011;44936;52.086;5.150;2023-06-01T12:38:03;2.45;;;1.25;;
36725;SDS011;44936;52.086;5.150;2023-06-01T12:40:29;1.98;;;1.02;;
36725;SDS011;44936;52.086;5.150;2023-06-01T12:42:54;1.40;;;1.10;;
36725;SDS011;44936;52.086;5.150;2023-06-01T12:45:19;3.42;;;1.08;;
36725;SDS011;44936;52.086;5.150;2023-06-01T12:47:45;2.38;;;0.88;;
36725;SDS011;44936;52.086;5.150;2023-06-01T12:50:11;2.25;;;1.20;;
36725;SDS011;44936;52.086;5.150;2023-06-01T12:52:38;2.80;;;0.77;;
36725;SDS011;44936;52.086;5.150;2023-06-01T12:55:05;1.10;;;1.00;;
36725;SDS011;44936;52.086;5.150;2023-06-01T12:57:32;1.25;;;0.75;;
36725;SDS011;44936;52.086;5.150;2023-06-01T12:59:58;2.45;;;1.02;;
36725;SDS011;44936;52.086;5.150;2023-06-01T13:02:24;1.65;;;1.02;;
36725;SDS011;44936;52.086;5.150;2023-06-01T13:04:50;2.08;;;0.95;;
36725;SDS011;44936;52.086;5.150;2023-06-01T13:07:16;0.85;;;0.82;;
36725;SDS011;44936;52.086;5.150;2023-06-01T13:09:41;0.82;;;0.68;;
36725;SDS011;44936;52.086;5.150;2023-06-01T13:12:07;4.57;;;0.90;;
36725;SDS011;44936;52.086;5.150;2023-06-01T13:14:34;2.05;;;1.00;;
36725;SDS011;44936;52.086;5.150;2023-06-01T13:16:59;2.10;;;1.00;;
36725;SDS011;44936;52.086;5.150;2023-06-01T13:19:25;3.10;;;1.05;;
36725;SDS011;44936;52.086;5.150;2023-06-01T13:21:51;3.03;;;1.30;;
36725;SDS011;44936;52.086;5.150;2023-06-01T13:27:38;1.23;;;1.00;;
36725;SDS011;44936;52.086;5.150;2023-06-01T13:30:03;2.05;;;1.23;;
36725;SDS011;44936;52.086;5.150;2023-06-01T13:32:29;2.10;;;1.00;;
36725;SDS011;44936;52.086;5.150;2023-06-01T13:34:54;1.60;;;0.75;;
36725;SDS011;44936;52.086;5.150;2023-06-01T13:37:21;0.98;;;0.82;;
36725;SDS011;44936;52.086;5.150;2023-06-01T13:39:47;1.88;;;0.80;;
36725;SDS011;44936;52.086;5.150;2023-06-01T13:42:12;1.98;;;0.70;;
36725;SDS011;44936;52.086;5.150;2023-06-01T13:44:37;7.53;;;0.80;;
36725;SDS011;44936;52.086;5.150;2023-06-01T13:47:03;0.50;;;0.50;;
36725;SDS011;44936;52.086;5.150;2023-06-01T13:49:29;1.38;;;0.93;;
36725;SDS011;44936;52.086;5.150;2023-06-01T13:51:54;2.55;;;0.77;;
36725;SDS011;44936;52.086;5.150;2023-06-01T13:54:20;0.73;;;0.70;;
36725;SDS011;44936;52.086;5.150;2023-06-01T13:56:46;0.57;;;0.50;;
36725;SDS011;44936;52.086;5.150;2023-06-01T13:59:12;2.05;;;0.77;;
36725;SDS011;44936;52.086;5.150;2023-06-01T14:01:37;2.25;;;0.50;;
36725;SDS011;44936;52.086;5.150;2023-06-01T14:04:02;2.35;;;0.77;;
36725;SDS011;44936;52.086;5.150;2023-06-01T14:06:28;2.10;;;0.55;;
36725;SDS011;44936;52.086;5.150;2023-06-01T14:08:54;1.23;;;0.52;;
36725;SDS011;44936;52.086;5.150;2023-06-01T14:11:19;2.08;;;0.50;;
36725;SDS011;44936;52.086;5.150;2023-06-01T14:13:45;1.00;;;0.73;;
36725;SDS011;44936;52.086;5.150;2023-06-01T14:16:11;1.33;;;0.60;;
36725;SDS011;44936;52.086;5.150;2023-06-01T14:22:02;0.70;;;0.63;;
36725;SDS011;44936;52.086;5.150;2023-06-01T14:24:28;2.08;;;0.70;;
36725;SDS011;44936;52.086;5.150;2023-06-01T14:26:53;1.13;;;0.55;;
36725;SDS011;44936;52.086;5.150;2023-06-01T14:29:19;0.70;;;0.50;;
36725;SDS011;44936;52.086;5.150;2023-06-01T14:31:45;0.85;;;0.45;;
36725;SDS011;44936;52.086;5.150;2023-06-01T14:39:13;0.43;;;0.40;;
36725;SDS011;44936;52.086;5.150;2023-06-01T14:41:39;0.75;;;0.60;;
36725;SDS011;44936;52.086;5.150;2023-06-01T14:44:05;1.85;;;0.70;;
36725;SDS011;44936;52.086;5.150;2023-06-01T14:46:31;1.42;;;0.52;;
36725;SDS011;44936;52.086;5.150;2023-06-01T14:48:56;0.80;;;0.80;;
36725;SDS011;44936;52.086;5.150;2023-06-01T14:51:24;3.03;;;0.93;;
36725;SDS011;44936;52.086;5.150;2023-06-01T14:53:51;1.23;;;1.00;;
36725;SDS011;44936;52.086;5.150;2023-06-01T14:56:17;1.58;;;0.60;;
36725;SDS011;44936;52.086;5.150;2023-06-01T14:58:42;2.65;;;1.08;;
36725;SDS011;44936;52.086;5.150;2023-06-01T15:01:07;0.57;;;0.52;;
36725;SDS011;44936;52.086;5.150;2023-06-01T15:03:33;1.23;;;0.73;;
36725;SDS011;44936;52.086;5.150;2023-06-01T15:05:58;1.20;;;0.98;;
36725;SDS011;44936;52.086;5.150;2023-06-01T15:08:23;1.13;;;0.80;;
36725;SDS011;44936;52.086;5.150;2023-06-01T15:10:51;0.82;;;0.70;;
36725;SDS011;44936;52.086;5.150;2023-06-01T15:13:18;2.05;;;1.00;;
36725;SDS011;44936;52.086;5.150;2023-06-01T15:15:44;1.60;;;0.90;;
36725;SDS011;44936;52.086;5.150;2023-06-01T15:18:09;1.92;;;0.75;;
36725;SDS011;44936;52.086;5.150;2023-06-01T15:20:35;0.68;;;0.55;;
36725;SDS011;44936;52.086;5.150;2023-06-01T15:23:00;2.63;;;1.52;;
36725;SDS011;44936;52.086;5.150;2023-06-01T15:25:25;1.77;;;0.63;;
36725;SDS011;44936;52.086;5.150;2023-06-01T15:27:50;2.85;;;0.75;;
36725;SDS011;44936;52.086;5.150;2023-06-01T15:30:16;1.45;;;0.60;;
36725;SDS011;44936;52.086;5.150;2023-06-01T15:32:41;1.10;;;0.75;;
36725;SDS011;44936;52.086;5.150;2023-06-01T15:35:07;1.40;;;0.80;;
36725;SDS011;44936;52.086;5.150;2023-06-01T15:37:33;2.20;;;0.73;;
36725;SDS011;44936;52.086;5.150;2023-06-01T15:39:59;2.10;;;1.00;;
36725;SDS011;44936;52.086;5.150;2023-06-01T15:42:24;1.92;;;0.95;;
36725;SDS011;44936;52.086;5.150;2023-06-01T15:44:49;1.45;;;0.70;;
36725;SDS011;44936;52.086;5.150;2023-06-01T15:47:15;1.60;;;0.82;;